Time;durP1;ratioP1;P1;durP2;ratioP2;P2;SDS_P1;SDS_P2;PMS_P1;PMS_P2;Temp;Humidity;BMP_temperature;BMP_pressure;BME280_temperature;BME280_humidity;BME280_pressure;Samples;Min_cycle;Max_cycle;Signal;HPM_P1;HPM_P2
2021/05/12 00:01:25;;;;;;;16.70;10.80;;;15.40;96.70;;;;;;5064460;28;20040;-85
2021/05/12 00:03:51;;;;;;;17.30;11.55;;;15.50;96.60;;;;;;5077844;28;20052;-85
2021/05/12 00:06:16;;;;;;;15.07;10.32;;;15.40;96.60;;;;;;5057464;28;20041;-85
2021/05/12 00:08:42;;;;;;;16.38;10.55;;;15.40;96.70;;;;;;5072273;28;20430;-84
2021/05/12 00:11:07;;;;;;;18.95;10.57;;;15.40;96.70;;;;;;5061573;28;20087;-85
2021/05/12 00:13:33;;;;;;;15.55;10.55;;;15.50;96.70;;;;;;5068303;28;20056;-85
2021/05/12 00:15:58;;;;;;;16.05;10.07;;;15.50;96.60;;;;;;5054328;28;20048;-85
2021/05/12 00:18:26;;;;;;;14.55;11.05;;;15.50;96.70;;;;;;5087333;28;20036;-85
2021/05/12 00:20:52;;;;;;;14.27;10.25;;;15.60;96.70;;;;;;5071459;28;20078;-85
2021/05/12 00:23:21;;;;;;;13.55;9.98;;;15.60;96.60;;;;;;5087134;28;21738;-85
2021/05/12 00:25:46;;;;;;;13.10;9.25;;;15.60;96.50;;;;;;5064288;28;20045;-85
2021/05/12 00:28:12;;;;;;;11.20;8.20;;;15.70;96.30;;;;;;5052623;28;20044;-84
2021/05/12 00:30:38;;;;;;;13.45;8.50;;;15.60;95.80;;;;;;5063902;28;20033;-85
2021/05/12 00:33:04;;;;;;;12.10;7.85;;;15.60;95.80;;;;;;5083761;28;20102;-84
2021/05/12 00:35:29;;;;;;;13.05;8.27;;;15.60;95.90;;;;;;5044905;28;20041;-85
2021/05/12 00:37:55;;;;;;;12.77;8.05;;;15.60;95.80;;;;;;5068090;28;20426;-85
2021/05/12 00:40:21;;;;;;;11.80;8.43;;;15.70;95.80;;;;;;5068711;28;20044;-85
2021/05/12 00:42:47;;;;;;;11.05;7.85;;;15.70;95.60;;;;;;5071716;28;20036;-84
2021/05/12 00:45:16;;;;;;;11.38;7.88;;;15.70;95.70;;;;;;5071617;28;20039;-85
2021/05/12 00:47:42;;;;;;;10.52;7.65;;;15.70;95.80;;;;;;5047794;28;20307;-85
2021/05/12 00:50:09;;;;;;;8.40;6.95;;;15.70;95.80;;;;;;5043802;28;20060;-85
2021/05/12 00:52:34;;;;;;;12.88;8.18;;;15.70;95.80;;;;;;5052285;28;20063;-85
2021/05/12 00:55:00;;;;;;;10.60;7.75;;;15.70;95.70;;;;;;5041041;28;20071;-85
2021/05/12 00:57:26;;;;;;;10.85;7.28;;;15.70;95.60;;;;;;5045555;28;20040;-86
2021/05/12 00:59:53;;;;;;;12.52;8.88;;;15.70;95.60;;;;;;5057203;28;20045;-85
2021/05/12 01:02:19;;;;;;;10.05;7.97;;;15.70;95.80;;;;;;5064240;28;20115;-86
2021/05/12 01:04:45;;;;;;;11.38;8.25;;;15.70;95.80;;;;;;5055295;28;20036;-85
2021/05/12 01:07:11;;;;;;;15.55;8.18;;;15.70;95.90;;;;;;5062689;28;20032;-86
2021/05/12 01:09:37;;;;;;;12.38;8.48;;;15.60;95.90;;;;;;5050621;28;20041;-85
2021/05/12 01:12:03;;;;;;;14.45;8.88;;;15.70;95.90;;;;;;5083126;28;20052;-85
2021/05/12 01:14:30;;;;;;;11.32;8.30;;;15.70;95.90;;;;;;5046043;28;20040;-84
2021/05/12 01:16:56;;;;;;;13.35;9.63;;;15.70;95.90;;;;;;5071827;28;20040;-85
2021/05/12 01:19:22;;;;;;;13.85;9.60;;;15.70;96.00;;;;;;5064456;28;20055;-85
2021/05/12 01:21:48;;;;;;;14.02;9.30;;;15.70;96.00;;;;;;5068788;28;20032;-85
2021/05/12 01:24:14;;;;;;;13.48;10.30;;;15.80;95.90;;;;;;5075290;28;20045;-85
2021/05/12 01:26:39;;;;;;;16.90;10.18;;;15.70;95.90;;;;;;5082491;28;20068;-85
2021/05/12 01:29:06;;;;;;;15.73;11.00;;;15.70;95.90;;;;;;5067082;28;20134;-84
2021/05/12 01:31:36;;;;;;;14.82;10.88;;;15.70;96.00;;;;;;5059325;28;20039;-85
2021/05/12 01:34:04;;;;;;;13.93;10.80;;;15.70;96.10;;;;;;5045882;28;20032;-85
2021/05/12 01:36:31;;;;;;;18.33;12.05;;;15.70;96.10;;;;;;5046460;28;20045;-84
2021/05/12 01:38:57;;;;;;;13.45;10.43;;;15.70;96.10;;;;;;5038523;28;20483;-85
2021/05/12 01:41:24;;;;;;;15.02;10.65;;;15.70;96.10;;;;;;5070743;28;20303;-86
2021/05/12 01:43:50;;;;;;;15.35;11.43;;;15.70;96.00;;;;;;5045031;28;20064;-85
2021/05/12 01:46:17;;;;;;;16.83;11.00;;;15.80;96.40;;;;;;5065191;28;20097;-85
2021/05/12 01:48:43;;;;;;;13.98;10.77;;;15.80;96.10;;;;;;5053588;28;20036;-86
2021/05/12 01:51:10;;;;;;;17.50;11.60;;;15.70;96.10;;;;;;5044078;28;20040;-85
2021/05/12 01:53:35;;;;;;;16.67;11.60;;;15.60;96.40;;;;;;5071192;28;20036;-85
2021/05/12 01:56:02;;;;;;;18.70;11.95;;;15.60;96.40;;;;;;5068460;28;20478;-85
2021/05/12 01:58:28;;;;;;;19.08;12.55;;;15.60;96.40;;;;;;5057088;28;20049;-85
2021/05/12 02:00:55;;;;;;;19.90;13.13;;;15.60;96.50;;;;;;5055532;28;20048;-85
2021/05/12 02:03:22;;;;;;;17.95;12.50;;;15.60;96.40;;;;;;5075683;28;20342;-85
2021/05/12 02:05:50;;;;;;;16.45;11.90;;;15.60;96.60;;;;;;5070621;28;20331;-85
2021/05/12 02:08:20;;;;;;;16.50;11.95;;;15.60;96.50;;;;;;5051341;28;20044;-85
2021/05/12 02:10:46;;;;;;;14.65;11.38;;;15.60;96.50;;;;;;5072256;28;20037;-85
2021/05/12 02:13:13;;;;;;;19.30;11.45;;;15.60;96.50;;;;;;5077998;28;20051;-85
2021/05/12 02:15:40;;;;;;;16.52;10.95;;;15.60;96.50;;;;;;5069035;28;20056;-85
2021/05/12 02:18:05;;;;;;;15.98;12.05;;;15.70;96.20;;;;;;5064121;28;20036;-85
2021/05/12 02:20:34;;;;;;;15.45;10.45;;;15.70;96.20;;;;;;5071136;28;20351;-85
2021/05/12 02:23:01;;;;;;;15.82;10.55;;;15.70;96.20;;;;;;5060265;28;20048;-85
2021/05/12 02:25:27;;;;;;;21.83;10.93;;;15.70;96.20;;;;;;5065506;28;20040;-84
2021/05/12 02:27:53;;;;;;;16.02;12.05;;;15.70;96.10;;;;;;5066900;28;20028;-84
2021/05/12 02:30:19;;;;;;;14.52;10.20;;;15.70;96.10;;;;;;5076167;28;20111;-85
2021/05/12 02:32:45;;;;;;;17.92;11.23;;;15.80;96.10;;;;;;5066127;28;20032;-85
2021/05/12 02:35:12;;;;;;;13.63;11.18;;;15.80;96.00;;;;;;5049585;28;20051;-85
2021/05/12 02:37:37;;;;;;;15.60;10.70;;;15.70;95.90;;;;;;5059713;28;20406;-85
2021/05/12 02:40:05;;;;;;;17.35;11.07;;;15.80;95.90;;;;;;5093051;28;20037;-85
2021/05/12 02:42:30;;;;;;;14.32;10.40;;;15.80;95.90;;;;;;5075003;28;20036;-85
2021/05/12 02:44:56;;;;;;;15.60;11.13;;;15.90;95.90;;;;;;5069306;28;20040;-85
2021/05/12 02:47:21;;;;;;;15.35;10.98;;;15.90;95.80;;;;;;5089709;28;20068;-85
2021/05/12 02:49:47;;;;;;;20.27;11.63;;;15.90;95.80;;;;;;5062905;28;20028;-85
2021/05/12 02:52:12;;;;;;;15.90;11.70;;;15.80;95.80;;;;;;5084466;28;20047;-85
2021/05/12 02:54:38;;;;;;;18.50;11.82;;;15.90;96.00;;;;;;5074030;28;20525;-85
2021/05/12 02:57:04;;;;;;;15.70;10.48;;;15.90;96.00;;;;;;5049477;28;20053;-85
2021/05/12 02:59:30;;;;;;;14.77;11.23;;;15.90;96.00;;;;;;5058555;28;20402;-84
2021/05/12 03:01:55;;;;;;;15.23;11.25;;;15.90;96.30;;;;;;5069547;28;20114;-85
2021/05/12 03:04:21;;;;;;;17.17;11.55;;;15.90;96.00;;;;;;5053350;28;20047;-84
2021/05/12 03:06:47;;;;;;;16.63;13.05;;;15.90;96.10;;;;;;5063591;28;20307;-85
2021/05/12 03:09:13;;;;;;;17.65;11.75;;;15.90;96.40;;;;;;5067006;28;20033;-85
2021/05/12 03:11:39;;;;;;;14.10;11.75;;;15.90;96.30;;;;;;5045141;28;20388;-85
2021/05/12 03:14:07;;;;;;;13.45;11.05;;;15.80;96.30;;;;;;5048994;28;20344;-84
2021/05/12 03:16:33;;;;;;;14.35;11.38;;;15.90;96.20;;;;;;5052305;28;20051;-84
2021/05/12 03:18:59;;;;;;;13.38;10.55;;;15.80;96.40;;;;;;5070809;28;20025;-85
2021/05/12 03:21:25;;;;;;;18.80;12.70;;;15.80;96.50;;;;;;5075512;28;20090;-84
2021/05/12 03:23:50;;;;;;;12.80;10.38;;;15.70;96.50;;;;;;5092101;28;20040;-84
2021/05/12 03:26:17;;;;;;;14.52;10.55;;;15.80;96.50;;;;;;5051311;28;20055;-85
2021/05/12 03:28:44;;;;;;;12.65;10.18;;;15.80;96.40;;;;;;5071165;28;20139;-85
2021/05/12 03:31:11;;;;;;;14.93;10.48;;;15.80;96.30;;;;;;5065862;28;20029;-85
2021/05/12 03:33:37;;;;;;;12.95;9.93;;;15.80;96.40;;;;;;5071440;28;20047;-84
2021/05/12 03:36:04;;;;;;;12.80;10.10;;;15.80;96.40;;;;;;5069291;28;20040;-84
2021/05/12 03:38:30;;;;;;;12.65;9.52;;;15.70;96.40;;;;;;5066843;28;20328;-85
2021/05/12 03:40:55;;;;;;;14.73;10.18;;;15.70;96.40;;;;;;5048552;28;20079;-84
2021/05/12 03:43:21;;;;;;;13.50;9.93;;;15.70;96.40;;;;;;5078552;28;20075;-85
2021/05/12 03:45:46;;;;;;;12.02;9.40;;;15.70;96.40;;;;;;5076604;28;20347;-85
2021/05/12 03:48:12;;;;;;;12.73;10.00;;;15.70;96.40;;;;;;5058651;28;20045;-85
2021/05/12 03:50:38;;;;;;;14.65;9.35;;;15.70;96.40;;;;;;5056965;28;20044;-85
2021/05/12 03:53:04;;;;;;;13.32;9.85;;;15.70;96.30;;;;;;5071385;28;20044;-85
2021/05/12 03:55:29;;;;;;;11.93;9.13;;;15.70;96.30;;;;;;5049353;28;20040;-85
2021/05/12 03:57:55;;;;;;;14.52;9.80;;;15.70;96.50;;;;;;5044897;28;20110;-86
2021/05/12 04:00:21;;;;;;;14.98;9.80;;;15.70;96.40;;;;;;5046703;28;20068;-85
2021/05/12 04:02:46;;;;;;;11.95;9.35;;;15.80;96.30;;;;;;5054976;28;20113;-85
2021/05/12 04:05:14;;;;;;;13.75;9.88;;;15.80;96.20;;;;;;5060010;28;20036;-85
2021/05/12 04:07:39;;;;;;;11.30;9.10;;;15.70;96.00;;;;;;5064705;28;20049;-85
2021/05/12 04:10:06;;;;;;;20.63;9.18;;;15.70;96.10;;;;;;5081242;28;20045;-85
2021/05/12 04:12:31;;;;;;;12.65;10.13;;;15.70;96.20;;;;;;5045848;28;20059;-85
2021/05/12 04:14:57;;;;;;;11.55;10.25;;;15.80;96.20;;;;;;5079844;28;20545;-85
2021/05/12 04:17:23;;;;;;;12.85;9.52;;;15.80;96.20;;;;;;5063290;28;20400;-85
2021/05/12 04:19:48;;;;;;;14.00;8.63;;;15.90;96.20;;;;;;5066333;28;20038;-86
2021/05/12 04:22:15;;;;;;;12.18;9.10;;;15.90;96.10;;;;;;5044659;28;20569;-85
2021/05/12 04:24:40;;;;;;;11.10;9.52;;;15.90;96.10;;;;;;5046224;28;20059;-84
2021/05/12 04:27:06;;;;;;;12.35;9.35;;;15.80;96.00;;;;;;5048269;28;20047;-85
2021/05/12 04:29:32;;;;;;;12.32;9.00;;;15.80;96.00;;;;;;5070420;28;20299;-86
2021/05/12 04:31:57;;;;;;;11.57;9.75;;;15.90;96.10;;;;;;5051728;28;20656;-85
2021/05/12 04:34:23;;;;;;;11.38;9.43;;;15.90;96.10;;;;;;5063954;28;20044;-85
2021/05/12 04:36:49;;;;;;;12.50;10.02;;;15.90;95.90;;;;;;5040814;28;20041;-85
2021/05/12 04:39:14;;;;;;;12.95;10.02;;;15.90;95.90;;;;;;5061476;28;20115;-85
2021/05/12 04:41:40;;;;;;;11.07;9.30;;;15.90;95.90;;;;;;5059341;28;20039;-85
2021/05/12 04:44:06;;;;;;;12.07;9.70;;;15.90;96.00;;;;;;5060263;28;20040;-85
2021/05/12 04:46:32;;;;;;;14.15;10.00;;;15.90;95.90;;;;;;5060067;28;20159;-86
2021/05/12 04:48:58;;;;;;;10.05;8.75;;;16.00;96.10;;;;;;5061795;28;20224;-86
2021/05/12 04:51:23;;;;;;;12.57;9.13;;;16.00;95.70;;;;;;5058451;28;20029;-85
2021/05/12 04:53:49;;;;;;;11.52;9.23;;;16.00;95.70;;;;;;5055637;28;20106;-86
2021/05/12 04:56:15;;;;;;;10.90;8.95;;;16.00;95.80;;;;;;5058924;28;20093;-85
2021/05/12 04:58:41;;;;;;;13.15;10.25;;;16.00;95.80;;;;;;5069527;28;20074;-85
2021/05/12 05:01:07;;;;;;;13.93;10.18;;;16.10;95.50;;;;;;5072334;28;20076;-85
2021/05/12 05:03:34;;;;;;;12.82;10.35;;;16.10;95.50;;;;;;5047893;28;20044;-85
2021/05/12 05:06:00;;;;;;;12.20;10.18;;;16.10;95.60;;;;;;5080666;28;20072;-85
2021/05/12 05:08:29;;;;;;;12.20;9.15;;;16.10;95.50;;;;;;5055256;28;20083;-84
2021/05/12 05:10:54;;;;;;;11.75;9.57;;;16.10;95.60;;;;;;5041892;28;20048;-85
2021/05/12 05:13:20;;;;;;;15.05;9.95;;;16.10;95.60;;;;;;5077394;28;20741;-84
2021/05/12 05:15:45;;;;;;;13.07;9.27;;;16.10;95.60;;;;;;5044219;28;20097;-85
2021/05/12 05:18:12;;;;;;;10.68;9.43;;;16.10;95.60;;;;;;5062379;28;20455;-85
2021/05/12 05:20:38;;;;;;;13.05;10.18;;;16.10;95.60;;;;;;5067663;28;20097;-85
2021/05/12 05:23:06;;;;;;;11.73;9.45;;;16.00;95.70;;;;;;5079867;28;20123;-85
2021/05/12 05:25:32;;;;;;;11.18;9.05;;;16.00;95.70;;;;;;5077431;28;20036;-85
2021/05/12 05:27:58;;;;;;;14.88;9.95;;;16.00;95.80;;;;;;5064383;28;20028;-86
2021/05/12 05:30:23;;;;;;;13.50;10.25;;;16.00;95.80;;;;;;5066762;28;20115;-86
2021/05/12 05:32:49;;;;;;;12.27;10.13;;;16.00;95.90;;;;;;5076545;28;20185;-87
2021/05/12 05:35:14;;;;;;;15.93;11.05;;;16.00;95.80;;;;;;5082621;28;20032;-85
2021/05/12 05:37:40;;;;;;;13.15;10.75;;;16.00;95.80;;;;;;5066683;28;20097;-85
2021/05/12 05:40:06;;;;;;;11.70;9.57;;;16.10;95.80;;;;;;5070664;28;20354;-86
2021/05/12 05:42:32;;;;;;;12.00;9.65;;;16.10;95.80;;;;;;5036858;28;20040;-86
2021/05/12 05:44:57;;;;;;;14.18;10.57;;;16.10;95.70;;;;;;5044567;28;20147;-85
2021/05/12 05:47:23;;;;;;;14.25;10.80;;;16.10;95.70;;;;;;5069768;28;20047;-85
2021/05/12 05:49:48;;;;;;;16.35;10.13;;;16.10;95.80;;;;;;5070367;28;20045;-84
2021/05/12 05:52:14;;;;;;;13.82;9.68;;;16.10;95.80;;;;;;5065035;28;20500;-85
2021/05/12 05:54:39;;;;;;;12.25;10.52;;;16.10;95.80;;;;;;5051304;28;20032;-85
2021/05/12 05:57:06;;;;;;;13.77;10.20;;;16.20;95.60;;;;;;5077192;28;20336;-85
2021/05/12 05:59:33;;;;;;;12.00;9.60;;;16.20;95.60;;;;;;5055794;28;20361;-86
2021/05/12 06:02:00;;;;;;;14.75;10.15;;;16.20;95.50;;;;;;5060421;28;20074;-86
2021/05/12 06:04:25;;;;;;;13.48;9.73;;;16.30;95.50;;;;;;5069138;28;21551;-84
2021/05/12 06:06:51;;;;;;;14.75;10.05;;;16.30;95.40;;;;;;5051872;28;20032;-85
2021/05/12 06:09:18;;;;;;;12.65;9.88;;;16.30;95.10;;;;;;5048320;28;20068;-85
2021/05/12 06:11:44;;;;;;;12.38;9.90;;;16.30;95.00;;;;;;5044124;28;20628;-86
2021/05/12 06:14:10;;;;;;;11.80;9.48;;;16.30;94.90;;;;;;5046955;28;20047;-85
2021/05/12 06:16:35;;;;;;;10.85;9.02;;;16.30;95.00;;;;;;5043100;28;20041;-86
2021/05/12 06:19:01;;;;;;;13.77;10.60;;;16.30;95.00;;;;;;5049254;28;20144;-84
2021/05/12 06:21:26;;;;;;;12.95;10.13;;;16.30;94.90;;;;;;5061212;28;20139;-85
2021/05/12 06:23:52;;;;;;;12.82;9.75;;;16.20;94.90;;;;;;5061715;28;20044;-85
2021/05/12 06:26:19;;;;;;;11.45;9.43;;;16.30;94.90;;;;;;5064670;28;20151;-85
2021/05/12 06:28:46;;;;;;;13.73;9.82;;;16.30;95.00;;;;;;5062351;28;20039;-85
2021/05/12 06:31:12;;;;;;;17.00;10.50;;;16.30;94.80;;;;;;5064610;28;20032;-83
2021/05/12 06:33:42;;;;;;;13.35;10.27;;;16.20;95.00;;;;;;5059183;28;20048;-84
2021/05/12 06:36:07;;;;;;;14.52;10.40;;;16.20;95.00;;;;;;5065770;28;20117;-85
2021/05/12 06:38:33;;;;;;;11.60;9.30;;;16.20;95.10;;;;;;5071370;28;20707;-86
2021/05/12 06:40:59;;;;;;;13.93;9.43;;;16.20;95.20;;;;;;5074767;28;20051;-85
2021/05/12 06:43:25;;;;;;;13.27;10.90;;;16.30;94.80;;;;;;5065999;28;20045;-86
2021/05/12 06:45:51;;;;;;;12.30;9.57;;;16.30;94.80;;;;;;5054466;28;20119;-85
2021/05/12 06:48:16;;;;;;;10.80;9.05;;;16.30;94.90;;;;;;5054359;28;20041;-85
2021/05/12 06:50:43;;;;;;;11.18;9.25;;;16.30;94.80;;;;;;5037888;28;20540;-85
2021/05/12 06:53:09;;;;;;;11.82;8.85;;;16.30;94.80;;;;;;5056082;28;20124;-85
2021/05/12 06:55:35;;;;;;;27.27;9.68;;;16.40;94.50;;;;;;5045436;28;20123;-85
2021/05/12 06:58:00;;;;;;;16.00;11.25;;;16.40;94.60;;;;;;5055566;28;20048;-85
2021/05/12 07:00:26;;;;;;;15.48;10.52;;;16.30;94.50;;;;;;5076499;28;20111;-85
2021/05/12 07:02:52;;;;;;;11.65;9.27;;;16.30;94.50;;;;;;5077066;28;20123;-86
2021/05/12 07:05:19;;;;;;;32.33;11.45;;;16.30;94.60;;;;;;5059026;28;20132;-85
2021/05/12 07:07:45;;;;;;;18.30;11.40;;;16.30;94.70;;;;;;5076540;28;20358;-85
2021/05/12 07:10:12;;;;;;;27.25;11.27;;;16.30;94.80;;;;;;5075078;28;20139;-85
2021/05/12 07:12:38;;;;;;;21.42;11.35;;;16.30;95.00;;;;;;5076626;28;20119;-85
2021/05/12 07:15:08;;;;;;;14.02;10.77;;;16.30;95.30;;;;;;5063593;28;20340;-85
2021/05/12 07:17:33;;;;;;;13.50;10.57;;;16.30;95.20;;;;;;5076511;28;20077;-85
2021/05/12 07:19:59;;;;;;;38.53;12.57;;;16.20;95.10;;;;;;5058219;28;20378;-85
2021/05/12 07:22:25;;;;;;;12.98;9.70;;;16.20;95.30;;;;;;5073303;28;20119;-86
2021/05/12 07:24:51;;;;;;;11.45;9.07;;;16.20;95.10;;;;;;5075065;28;20036;-85
2021/05/12 07:27:17;;;;;;;18.90;9.65;;;16.20;95.10;;;;;;5046641;28;20118;-85
2021/05/12 07:29:43;;;;;;;13.65;10.40;;;16.20;95.20;;;;;;5051083;28;20039;-85
2021/05/12 07:32:09;;;;;;;13.80;10.20;;;16.20;95.00;;;;;;5074153;28;20119;-83
2021/05/12 07:34:35;;;;;;;12.05;8.95;;;16.20;95.30;;;;;;5076076;28;20037;-84
2021/05/12 07:37:00;;;;;;;11.77;9.43;;;16.20;95.10;;;;;;5052618;28;20067;-85
2021/05/12 07:39:29;;;;;;;10.27;7.85;;;16.20;95.40;;;;;;5056205;28;20045;-83
2021/05/12 07:41:56;;;;;;;13.18;9.27;;;16.20;95.00;;;;;;5062790;28;20041;-83
2021/05/12 07:44:22;;;;;;;13.35;9.52;;;16.20;94.90;;;;;;5038806;28;20071;-85
2021/05/12 07:46:50;;;;;;;15.65;8.88;;;16.20;95.20;;;;;;5060075;28;20407;-84
2021/05/12 07:49:15;;;;;;;14.45;10.10;;;16.20;95.40;;;;;;5046405;28;20028;-86
2021/05/12 07:51:40;;;;;;;13.30;10.60;;;16.20;95.30;;;;;;5074729;28;20051;-83
2021/05/12 07:54:06;;;;;;;16.05;10.32;;;16.10;94.80;;;;;;5088595;28;20036;-86
2021/05/12 07:56:31;;;;;;;17.35;10.48;;;16.00;94.90;;;;;;5075484;28;20045;-85
2021/05/12 07:58:57;;;;;;;13.63;10.50;;;16.00;94.90;;;;;;5088396;28;20174;-85
2021/05/12 08:01:28;;;;;;;14.50;11.52;;;15.90;94.90;;;;;;5068525;28;20604;-85
2021/05/12 08:03:54;;;;;;;17.55;12.07;;;15.90;94.90;;;;;;5072417;28;20054;-85
2021/05/12 08:06:19;;;;;;;21.20;13.98;;;15.90;95.20;;;;;;5072832;28;20285;-84
2021/05/12 08:08:45;;;;;;;15.88;12.38;;;15.90;95.20;;;;;;5067667;28;20060;-84
2021/05/12 08:11:10;;;;;;;17.90;13.75;;;15.90;95.20;;;;;;5076118;28;20040;-85
2021/05/12 08:13:35;;;;;;;17.20;13.05;;;15.90;95.00;;;;;;5080470;28;20037;-84
2021/05/12 08:16:01;;;;;;;19.02;12.88;;;15.90;95.10;;;;;;5070121;28;20040;-85
2021/05/12 08:18:26;;;;;;;20.33;14.45;;;15.80;95.20;;;;;;5075425;28;20068;-85
2021/05/12 08:20:55;;;;;;;21.75;15.65;;;15.70;95.20;;;;;;5088564;28;20036;-85
2021/05/12 08:23:20;;;;;;;26.10;16.10;;;15.80;95.30;;;;;;5037747;28;20048;-84
2021/05/12 08:25:46;;;;;;;20.50;15.23;;;15.70;95.40;;;;;;5054296;28;20645;-85
2021/05/12 08:28:13;;;;;;;23.30;15.45;;;15.70;95.40;;;;;;5067017;28;20388;-85
2021/05/12 08:30:44;;;;;;;18.70;14.52;;;15.70;95.20;;;;;;5069942;28;20037;-85
2021/05/12 08:33:10;;;;;;;17.48;14.30;;;15.70;94.80;;;;;;5066757;28;20040;-85
2021/05/12 08:35:39;;;;;;;18.63;12.85;;;15.70;94.60;;;;;;5069036;28;20377;-85
2021/05/12 08:38:04;;;;;;;15.18;12.23;;;15.60;93.90;;;;;;5056498;28;20127;-85
2021/05/12 08:40:31;;;;;;;16.48;12.63;;;15.60;93.90;;;;;;5074480;28;20111;-85
2021/05/12 08:42:57;;;;;;;23.17;14.05;;;15.60;94.30;;;;;;5056828;28;20071;-85
2021/05/12 08:45:23;;;;;;;21.33;13.02;;;15.70;94.80;;;;;;5089623;28;20028;-85
2021/05/12 08:47:54;;;;;;;18.67;12.93;;;15.60;94.40;;;;;;5074171;28;20433;-84
2021/05/12 08:50:19;;;;;;;17.08;12.57;;;15.60;94.30;;;;;;5056872;28;20048;-85
2021/05/12 08:52:46;;;;;;;19.80;13.23;;;15.60;94.50;;;;;;5057163;28;20044;-84
2021/05/12 08:55:12;;;;;;;17.02;12.90;;;15.50;94.80;;;;;;5073061;28;20201;-85
2021/05/12 08:57:37;;;;;;;16.05;12.70;;;15.50;95.00;;;;;;5056562;28;20368;-85
2021/05/12 09:00:06;;;;;;;19.92;13.50;;;15.50;94.80;;;;;;5056090;28;20132;-84
2021/05/12 09:02:32;;;;;;;17.50;12.60;;;15.60;94.90;;;;;;5054658;28;20032;-86
2021/05/12 09:04:57;;;;;;;20.65;13.25;;;15.60;94.90;;;;;;5077833;28;20037;-84
2021/05/12 09:07:23;;;;;;;16.65;12.68;;;15.60;95.20;;;;;;5054616;28;20040;-86
2021/05/12 09:09:50;;;;;;;18.60;12.27;;;15.60;95.10;;;;;;5079008;28;20555;-84
2021/05/12 09:12:16;;;;;;;15.52;12.02;;;15.60;95.20;;;;;;5050893;28;20032;-85
2021/05/12 09:14:42;;;;;;;17.40;13.02;;;15.60;95.00;;;;;;5073769;28;20303;-85
2021/05/12 09:17:08;;;;;;;22.00;12.07;;;15.60;95.10;;;;;;5073294;28;20040;-85
2021/05/12 09:19:34;;;;;;;18.88;12.68;;;15.60;95.30;;;;;;5073462;28;20028;-85
2021/05/12 09:22:02;;;;;;;19.30;13.23;;;15.60;95.40;;;;;;5072867;28;20051;-85
2021/05/12 09:24:36;;;;;;;19.77;12.68;;;15.70;95.00;;;;;;5051646;28;20194;-85
2021/05/12 09:27:10;;;;;;;23.48;13.73;;;15.60;95.00;;;;;;5055853;28;20417;-85
2021/05/12 09:29:38;;;;;;;18.58;13.57;;;15.60;94.90;;;;;;5055963;28;20043;-85
2021/05/12 09:32:14;;;;;;;19.02;14.82;;;15.60;94.90;;;;;;5073618;28;20040;-85
2021/05/12 09:34:54;;;;;;;19.30;12.93;;;15.60;95.20;;;;;;5073343;28;20060;-85
2021/05/12 09:37:26;;;;;;;20.95;13.75;;;15.40;94.90;;;;;;5055934;28;20048;-85
2021/05/12 09:39:52;;;;;;;18.90;14.10;;;15.40;95.30;;;;;;5054916;28;20545;-85
2021/05/12 09:42:19;;;;;;;17.98;13.52;;;15.30;95.50;;;;;;5073689;28;20040;-85
2021/05/12 09:44:45;;;;;;;19.80;13.95;;;15.30;95.50;;;;;;5072996;28;20419;-85
2021/05/12 09:47:12;;;;;;;18.73;13.05;;;15.30;95.30;;;;;;5055197;28;20105;-85
2021/05/12 09:49:40;;;;;;;20.73;14.10;;;15.30;95.20;;;;;;5056079;28;20036;-85
2021/05/12 09:52:06;;;;;;;21.90;14.07;;;15.30;95.30;;;;;;5060221;28;20037;-85
2021/05/12 09:54:33;;;;;;;20.67;15.38;;;15.30;95.50;;;;;;5054893;28;20025;-85
2021/05/12 09:57:00;;;;;;;22.42;15.27;;;15.20;95.50;;;;;;5071359;28;20686;-85
2021/05/12 09:59:32;;;;;;;21.45;15.32;;;15.10;95.60;;;;;;5083916;28;20400;-85
2021/05/12 10:02:00;;;;;;;25.92;15.45;;;15.10;95.70;;;;;;5061085;28;20037;-85
2021/05/12 10:04:38;;;;;;;25.08;15.98;;;15.00;95.90;;;;;;5073106;28;20044;-85
2021/05/12 10:07:21;;;;;;;24.67;15.13;;;15.00;96.10;;;;;;5072858;28;20257;-84
2021/05/12 10:09:48;;;;;;;;;;;15.00;96.50;;;;;;5036009;28;20342;-84
2021/05/12 10:12:18;;;;;;;22.33;15.82;;;15.00;96.00;;;;;;5052503;28;19959;-83
2021/05/12 10:14:49;;;;;;;27.52;16.88;;;14.90;96.20;;;;;;5052331;28;20671;-84
2021/05/12 10:17:17;;;;;;;21.25;15.32;;;14.90;96.30;;;;;;5052945;28;20040;-84
2021/05/12 10:19:44;;;;;;;25.65;16.30;;;14.80;96.30;;;;;;5039768;28;20032;-83
2021/05/12 10:22:11;;;;;;;23.17;16.00;;;14.90;96.50;;;;;;5072966;28;20047;-84
2021/05/12 10:24:38;;;;;;;21.65;14.95;;;14.90;96.80;;;;;;5055641;28;20075;-83
2021/05/12 10:27:16;;;;;;;24.30;15.73;;;14.90;96.60;;;;;;5071957;28;20045;-84
2021/05/12 10:29:47;;;;;;;25.50;15.00;;;15.00;96.80;;;;;;5059302;28;20111;-84
2021/05/12 10:32:22;;;;;;;26.65;15.98;;;15.00;96.60;;;;;;5059117;28;20573;-83
2021/05/12 10:34:49;;;;;;;22.45;14.80;;;15.10;96.60;;;;;;5057792;28;20044;-84
2021/05/12 10:37:17;;;;;;;20.58;14.77;;;15.10;96.10;;;;;;5075101;28;20033;-86
2021/05/12 10:39:43;;;;;;;20.30;13.32;;;15.10;96.00;;;;;;5076069;28;20161;-85
2021/05/12 10:42:09;;;;;;;21.08;15.63;;;15.10;95.80;;;;;;5077312;28;20040;-84
2021/05/12 10:44:41;;;;;;;22.65;15.32;;;15.20;96.60;;;;;;5063142;28;20063;-85
2021/05/12 10:47:10;;;;;;;22.40;15.68;;;15.10;96.40;;;;;;5058643;28;20048;-85
2021/05/12 10:49:36;;;;;;;22.85;14.63;;;15.10;96.30;;;;;;5076275;28;20086;-85
2021/05/12 10:52:07;;;;;;;22.42;15.40;;;15.10;96.40;;;;;;5059279;28;20408;-85
2021/05/12 10:54:44;;;;;;;26.27;15.93;;;15.20;96.40;;;;;;5076315;28;20085;-85
2021/05/12 10:57:31;;;;;;;22.35;14.70;;;15.20;96.70;;;;;;5058742;28;20044;-86
2021/05/12 10:59:56;;;;;;;20.77;14.52;;;15.10;96.40;;;;;;5058725;28;20422;-86
2021/05/12 11:02:51;;;;;;;24.55;15.10;;;15.10;96.30;;;;;;5058846;28;20040;-85
2021/05/12 11:05:17;;;;;;;22.23;14.48;;;15.00;96.30;;;;;;5058591;28;20048;-85
2021/05/12 11:08:15;;;;;;;18.77;13.05;;;14.90;96.60;;;;;;5058540;28;20609;-85
2021/05/12 11:10:52;;;;;;;21.23;15.10;;;14.80;96.70;;;;;;5058618;28;20396;-85
2021/05/12 11:13:23;;;;;;;23.25;15.85;;;14.80;96.90;;;;;;5058824;28;20036;-85
2021/05/12 11:15:53;;;;;;;21.65;14.50;;;14.90;97.10;;;;;;5075898;28;20131;-86
2021/05/12 11:18:34;;;;;;;26.52;16.55;;;14.90;96.80;;;;;;5070430;28;20033;-85
2021/05/12 11:21:19;;;;;;;22.88;15.57;;;14.80;97.20;;;;;;5073310;28;20078;-85
2021/05/12 11:24:07;;;;;;;21.70;15.63;;;14.70;97.10;;;;;;5074737;28;20033;-85
2021/05/12 11:32:02;;;;;;;20.60;14.90;;;14.70;97.10;;;;;;5075791;28;20045;-86
2021/05/12 11:34:28;;;;;;;20.75;14.20;;;14.70;97.10;;;;;;5047716;28;20422;-85
2021/05/12 11:37:14;;;;;;;19.83;13.93;;;14.70;97.30;;;;;;5039378;28;20114;-85
2021/05/12 11:39:41;;;;;;;21.85;14.52;;;14.70;97.80;;;;;;5075096;28;20051;-86
2021/05/12 11:42:25;;;;;;;20.23;13.60;;;14.70;97.50;;;;;;5074983;28;20071;-86
2021/05/12 11:45:13;;;;;;;20.17;13.13;;;14.80;97.90;;;;;;5074342;28;20044;-85
2021/05/12 11:47:40;;;;;;;21.27;13.25;;;14.80;97.50;;;;;;5055622;28;20068;-86
2021/05/12 11:50:23;;;;;;;17.65;12.82;;;14.80;97.60;;;;;;5064751;28;20689;-85
2021/05/12 11:52:49;;;;;;;18.77;12.00;;;14.80;97.60;;;;;;5070014;28;20147;-86
2021/05/12 11:55:14;;;;;;;15.45;11.82;;;14.90;97.20;;;;;;5073573;28;20119;-85
2021/05/12 11:57:44;;;;;;;17.48;11.45;;;14.90;97.20;;;;;;5083665;28;20140;-86
2021/05/12 12:00:15;;;;;;;15.00;10.85;;;15.00;97.00;;;;;;5064502;28;20086;-86
2021/05/12 12:02:52;;;;;;;15.20;10.40;;;15.00;96.90;;;;;;5065837;28;20147;-83
2021/05/12 12:05:18;;;;;;;18.13;11.23;;;15.00;97.00;;;;;;5070612;28;20040;-85
2021/05/12 12:07:43;;;;;;;15.63;9.85;;;15.00;97.00;;;;;;5075458;28;20040;-84
2021/05/12 12:10:09;;;;;;;14.88;10.27;;;15.10;97.00;;;;;;5075205;28;20099;-85
2021/05/12 12:12:36;;;;;;;13.98;10.02;;;15.20;97.50;;;;;;5091535;28;20037;-85
2021/05/12 12:15:09;;;;;;;15.68;9.88;;;15.20;97.00;;;;;;5074812;28;20074;-86
2021/05/12 12:17:35;;;;;;;13.75;9.13;;;15.30;96.90;;;;;;5057372;28;20040;-84
2021/05/12 12:20:06;;;;;;;12.35;8.70;;;15.40;95.90;;;;;;5090993;28;20123;-86
2021/05/12 12:22:31;;;;;;;13.05;8.15;;;15.30;95.90;;;;;;5057279;28;20044;-86
2021/05/12 12:25:11;;;;;;;12.18;7.72;;;15.30;96.00;;;;;;5074771;28;20040;-86
2021/05/12 12:27:41;;;;;;;13.73;8.45;;;15.30;95.60;;;;;;5056069;28;20102;-85
2021/05/12 12:30:08;;;;;;;12.50;8.20;;;15.10;96.40;;;;;;5067407;28;20032;-87
2021/05/12 12:32:35;;;;;;;14.23;7.85;;;15.10;96.90;;;;;;5040105;28;20037;-84
2021/05/12 12:35:02;;;;;;;11.60;8.23;;;15.10;96.70;;;;;;5073816;28;20040;-85
2021/05/12 12:37:30;;;;;;;11.52;8.13;;;15.10;96.70;;;;;;5056794;28;20110;-85